sensor_id;sensor_type;location;lat;lon;timestamp;P1;durP1;ratioP1;P2;durP2;ratioP2
37131;SDS011;23035;50.032;21.978;2023-07-20T00:03:09;9.02;;;4.68;;
37131;SDS011;23035;50.032;21.978;2023-07-20T00:08:16;6.57;;;4.45;;
37131;SDS011;23035;50.032;21.978;2023-07-20T00:13:21;11.50;;;4.85;;
37131;SDS011;23035;50.032;21.978;2023-07-20T00:18:25;11.15;;;4.78;;
37131;SDS011;23035;50.032;21.978;2023-07-20T00:23:30;9.07;;;4.85;;
37131;SDS011;23035;50.032;21.978;2023-07-20T00:28:37;9.50;;;4.57;;
37131;SDS011;23035;50.032;21.978;2023-07-20T00:33:42;9.10;;;4.90;;
37131;SDS011;23035;50.032;21.978;2023-07-20T00:38:48;11.13;;;4.97;;
37131;SDS011;23035;50.032;21.978;2023-07-20T00:43:51;6.40;;;4.65;;
37131;SDS011;23035;50.032;21.978;2023-07-20T00:48:55;6.97;;;4.72;;
37131;SDS011;23035;50.032;21.978;2023-07-20T00:54:01;9.93;;;5.38;;
37131;SDS011;23035;50.032;21.978;2023-07-20T00:59:05;7.55;;;5.00;;
37131;SDS011;23035;50.032;21.978;2023-07-20T01:04:09;10.40;;;4.80;;
37131;SDS011;23035;50.032;21.978;2023-07-20T01:09:16;7.78;;;4.55;;
37131;SDS011;23035;50.032;21.978;2023-07-20T01:14:23;11.20;;;5.07;;
37131;SDS011;23035;50.032;21.978;2023-07-20T01:19:27;8.30;;;4.70;;
37131;SDS011;23035;50.032;21.978;2023-07-20T01:29:55;9.85;;;4.55;;
37131;SDS011;23035;50.032;21.978;2023-07-20T01:35:16;5.18;;;4.45;;
37131;SDS011;23035;50.032;21.978;2023-07-20T01:40:22;7.90;;;5.40;;
37131;SDS011;23035;50.032;21.978;2023-07-20T01:45:27;8.20;;;4.50;;
37131;SDS011;23035;50.032;21.978;2023-07-20T01:50:33;16.40;;;4.77;;
37131;SDS011;23035;50.032;21.978;2023-07-20T01:55:37;8.77;;;4.43;;
37131;SDS011;23035;50.032;21.978;2023-07-20T02:00:41;6.70;;;4.20;;
37131;SDS011;23035;50.032;21.978;2023-07-20T02:05:46;7.30;;;4.63;;
37131;SDS011;23035;50.032;21.978;2023-07-20T02:10:50;5.75;;;4.30;;
37131;SDS011;23035;50.032;21.978;2023-07-20T02:15:54;13.82;;;5.15;;
37131;SDS011;23035;50.032;21.978;2023-07-20T02:20:59;10.43;;;4.68;;
37131;SDS011;23035;50.032;21.978;2023-07-20T02:26:03;9.00;;;5.00;;
37131;SDS011;23035;50.032;21.978;2023-07-20T02:31:07;7.55;;;4.57;;
37131;SDS011;23035;50.032;21.978;2023-07-20T02:36:12;13.38;;;4.75;;
37131;SDS011;23035;50.032;21.978;2023-07-20T02:41:16;8.60;;;4.80;;
37131;SDS011;23035;50.032;21.978;2023-07-20T02:46:20;8.40;;;4.85;;
37131;SDS011;23035;50.032;21.978;2023-07-20T02:51:25;11.38;;;4.45;;
37131;SDS011;23035;50.032;21.978;2023-07-20T02:56:29;7.65;;;5.13;;
37131;SDS011;23035;50.032;21.978;2023-07-20T03:01:33;5.78;;;4.10;;
37131;SDS011;23035;50.032;21.978;2023-07-20T03:06:38;12.77;;;4.57;;
37131;SDS011;23035;50.032;21.978;2023-07-20T03:11:42;9.18;;;4.63;;
37131;SDS011;23035;50.032;21.978;2023-07-20T03:16:46;14.00;;;4.63;;
37131;SDS011;23035;50.032;21.978;2023-07-20T03:21:52;8.45;;;4.68;;
37131;SDS011;23035;50.032;21.978;2023-07-20T03:26:55;12.20;;;4.85;;
37131;SDS011;23035;50.032;21.978;2023-07-20T03:32:00;9.75;;;5.00;;
37131;SDS011;23035;50.032;21.978;2023-07-20T03:37:05;11.80;;;5.25;;
37131;SDS011;23035;50.032;21.978;2023-07-20T03:42:09;12.98;;;5.45;;
37131;SDS011;23035;50.032;21.978;2023-07-20T03:47:13;11.50;;;5.55;;
37131;SDS011;23035;50.032;21.978;2023-07-20T03:52:18;9.95;;;5.25;;
37131;SDS011;23035;50.032;21.978;2023-07-20T03:57:22;7.28;;;4.97;;
37131;SDS011;23035;50.032;21.978;2023-07-20T04:02:26;10.13;;;5.45;;
37131;SDS011;23035;50.032;21.978;2023-07-20T04:07:31;6.78;;;4.53;;
37131;SDS011;23035;50.032;21.978;2023-07-20T04:12:35;7.07;;;4.80;;
37131;SDS011;23035;50.032;21.978;2023-07-20T04:17:39;7.32;;;4.22;;
37131;SDS011;23035;50.032;21.978;2023-07-20T04:22:44;9.25;;;4.38;;
37131;SDS011;23035;50.032;21.978;2023-07-20T04:27:50;7.60;;;4.43;;
37131;SDS011;23035;50.032;21.978;2023-07-20T04:32:54;9.73;;;5.63;;
37131;SDS011;23035;50.032;21.978;2023-07-20T04:38:03;8.88;;;4.97;;
37131;SDS011;23035;50.032;21.978;2023-07-20T04:43:12;8.80;;;4.78;;
37131;SDS011;23035;50.032;21.978;2023-07-20T04:48:19;10.00;;;5.85;;
37131;SDS011;23035;50.032;21.978;2023-07-20T04:53:30;12.48;;;8.75;;
37131;SDS011;23035;50.032;21.978;2023-07-20T04:58:38;18.35;;;11.18;;
37131;SDS011;23035;50.032;21.978;2023-07-20T05:03:45;16.35;;;13.80;;
37131;SDS011;23035;50.032;21.978;2023-07-20T05:08:54;17.30;;;14.30;;
37131;SDS011;23035;50.032;21.978;2023-07-20T05:14:00;16.77;;;13.73;;
37131;SDS011;23035;50.032;21.978;2023-07-20T05:19:04;16.40;;;13.18;;
37131;SDS011;23035;50.032;21.978;2023-07-20T05:24:10;14.32;;;12.98;;
37131;SDS011;23035;50.032;21.978;2023-07-20T05:29:13;12.00;;;10.65;;
37131;SDS011;23035;50.032;21.978;2023-07-20T05:34:17;12.45;;;9.80;;
37131;SDS011;23035;50.032;21.978;2023-07-20T05:39:24;15.15;;;10.18;;
37131;SDS011;23035;50.032;21.978;2023-07-20T05:44:28;20.50;;;9.98;;
37131;SDS011;23035;50.032;21.978;2023-07-20T05:49:32;18.80;;;10.30;;
37131;SDS011;23035;50.032;21.978;2023-07-20T05:54:37;16.40;;;10.23;;
37131;SDS011;23035;50.032;21.978;2023-07-20T05:59:41;17.10;;;11.38;;
37131;SDS011;23035;50.032;21.978;2023-07-20T06:04:46;11.20;;;8.88;;
37131;SDS011;23035;50.032;21.978;2023-07-20T06:09:51;12.13;;;8.52;;
37131;SDS011;23035;50.032;21.978;2023-07-20T06:14:55;19.77;;;14.80;;
37131;SDS011;23035;50.032;21.978;2023-07-20T06:19:59;14.40;;;8.77;;
37131;SDS011;23035;50.032;21.978;2023-07-20T06:25:06;10.67;;;7.37;;
37131;SDS011;23035;50.032;21.978;2023-07-20T06:30:10;13.18;;;7.00;;
37131;SDS011;23035;50.032;21.978;2023-07-20T06:35:15;12.93;;;7.77;;
37131;SDS011;23035;50.032;21.978;2023-07-20T06:40:21;13.27;;;7.23;;
37131;SDS011;23035;50.032;21.978;2023-07-20T06:45:28;12.75;;;10.20;;
37131;SDS011;23035;50.032;21.978;2023-07-20T06:50:33;13.50;;;9.02;;
37131;SDS011;23035;50.032;21.978;2023-07-20T06:55:38;12.88;;;8.40;;
37131;SDS011;23035;50.032;21.978;2023-07-20T07:00:44;13.27;;;7.80;;
37131;SDS011;23035;50.032;21.978;2023-07-20T07:05:48;11.85;;;7.80;;
37131;SDS011;23035;50.032;21.978;2023-07-20T07:10:54;11.55;;;8.60;;
37131;SDS011;23035;50.032;21.978;2023-07-20T07:15:58;10.85;;;8.10;;
37131;SDS011;23035;50.032;21.978;2023-07-20T07:21:04;10.70;;;8.02;;
37131;SDS011;23035;50.032;21.978;2023-07-20T07:26:10;10.38;;;8.05;;
37131;SDS011;23035;50.032;21.978;2023-07-20T07:31:15;14.32;;;8.18;;
37131;SDS011;23035;50.032;21.978;2023-07-20T07:36:19;13.43;;;8.63;;
37131;SDS011;23035;50.032;21.978;2023-07-20T07:41:25;17.08;;;9.00;;
37131;SDS011;23035;50.032;21.978;2023-07-20T07:46:29;11.35;;;8.38;;
37131;SDS011;23035;50.032;21.978;2023-07-20T07:51:33;15.45;;;9.02;;
37131;SDS011;23035;50.032;21.978;2023-07-20T07:56:38;13.32;;;8.48;;
37131;SDS011;23035;50.032;21.978;2023-07-20T08:01:43;13.23;;;8.07;;
37131;SDS011;23035;50.032;21.978;2023-07-20T08:06:47;12.00;;;7.72;;
37131;SDS011;23035;50.032;21.978;2023-07-20T08:11:52;12.70;;;7.57;;
37131;SDS011;23035;50.032;21.978;2023-07-20T08:16:56;13.05;;;7.38;;
37131;SDS011;23035;50.032;21.978;2023-07-20T08:22:00;11.27;;;7.00;;
37131;SDS011;23035;50.032;21.978;2023-07-20T08:27:06;9.80;;;6.22;;
37131;SDS011;23035;50.032;21.978;2023-07-20T08:37:15;10.68;;;7.03;;
37131;SDS011;23035;50.032;21.978;2023-07-20T08:42:21;9.63;;;5.50;;
37131;SDS011;23035;50.032;21.978;2023-07-20T08:47:26;14.70;;;6.40;;
37131;SDS011;23035;50.032;21.978;2023-07-20T08:52:31;13.65;;;6.00;;
37131;SDS011;23035;50.032;21.978;2023-07-20T08:57:39;9.75;;;5.78;;
37131;SDS011;23035;50.032;21.978;2023-07-20T09:02:45;11.93;;;5.55;;
37131;SDS011;23035;50.032;21.978;2023-07-20T09:07:50;13.43;;;5.30;;
37131;SDS011;23035;50.032;21.978;2023-07-20T09:12:56;9.10;;;4.63;;
37131;SDS011;23035;50.032;21.978;2023-07-20T09:18:01;9.32;;;4.85;;
37131;SDS011;23035;50.032;21.978;2023-07-20T09:23:05;10.55;;;5.18;;
37131;SDS011;23035;50.032;21.978;2023-07-20T09:28:11;11.15;;;4.70;;
37131;SDS011;23035;50.032;21.978;2023-07-20T09:33:18;9.18;;;5.10;;
37131;SDS011;23035;50.032;21.978;2023-07-20T09:38:25;11.82;;;5.43;;
37131;SDS011;23035;50.032;21.978;2023-07-20T09:43:32;8.52;;;5.05;;
37131;SDS011;23035;50.032;21.978;2023-07-20T09:48:37;14.65;;;4.40;;
37131;SDS011;23035;50.032;21.978;2023-07-20T09:54:01;7.60;;;4.00;;
37131;SDS011;23035;50.032;21.978;2023-07-20T09:59:07;39.47;;;7.90;;
37131;SDS011;23035;50.032;21.978;2023-07-20T10:04:11;14.13;;;4.38;;
37131;SDS011;23035;50.032;21.978;2023-07-20T10:09:17;6.90;;;4.28;;
37131;SDS011;23035;50.032;21.978;2023-07-20T10:14:24;8.20;;;4.75;;
37131;SDS011;23035;50.032;21.978;2023-07-20T10:19:33;6.75;;;3.97;;
37131;SDS011;23035;50.032;21.978;2023-07-20T10:24:53;8.48;;;4.10;;
37131;SDS011;23035;50.032;21.978;2023-07-20T10:30:06;8.20;;;3.67;;
37131;SDS011;23035;50.032;21.978;2023-07-20T10:35:14;7.28;;;4.20;;
37131;SDS011;23035;50.032;21.978;2023-07-20T10:45:49;10.48;;;3.40;;
37131;SDS011;23035;50.032;21.978;2023-07-20T10:56:19;10.18;;;3.70;;
37131;SDS011;23035;50.032;21.978;2023-07-20T11:01:29;7.25;;;4.03;;
37131;SDS011;23035;50.032;21.978;2023-07-20T11:06:35;8.38;;;4.25;;
37131;SDS011;23035;50.032;21.978;2023-07-20T11:11:40;6.35;;;3.40;;
37131;SDS011;23035;50.032;21.978;2023-07-20T11:16:48;7.80;;;3.40;;
37131;SDS011;23035;50.032;21.978;2023-07-20T11:21:53;4.70;;;3.45;;
37131;SDS011;23035;50.032;21.978;2023-07-20T11:27:05;3.80;;;2.92;;
37131;SDS011;23035;50.032;21.978;2023-07-20T11:32:11;4.15;;;3.03;;
37131;SDS011;23035;50.032;21.978;2023-07-20T11:37:15;5.28;;;3.00;;
37131;SDS011;23035;50.032;21.978;2023-07-20T11:42:19;3.90;;;2.63;;
37131;SDS011;23035;50.032;21.978;2023-07-20T11:47:30;3.80;;;2.83;;
37131;SDS011;23035;50.032;21.978;2023-07-20T11:52:33;3.85;;;2.70;;
37131;SDS011;23035;50.032;21.978;2023-07-20T11:57:38;3.53;;;2.50;;
37131;SDS011;23035;50.032;21.978;2023-07-20T12:02:43;3.90;;;2.40;;
37131;SDS011;23035;50.032;21.978;2023-07-20T12:07:47;4.40;;;2.50;;
37131;SDS011;23035;50.032;21.978;2023-07-20T12:12:54;2.50;;;2.30;;
37131;SDS011;23035;50.032;21.978;2023-07-20T12:18:05;4.80;;;2.40;;
37131;SDS011;23035;50.032;21.978;2023-07-20T12:23:10;5.22;;;2.65;;
37131;SDS011;23035;50.032;21.978;2023-07-20T12:28:16;4.07;;;2.40;;
37131;SDS011;23035;50.032;21.978;2023-07-20T12:33:24;3.13;;;2.08;;
37131;SDS011;23035;50.032;21.978;2023-07-20T12:38:29;3.45;;;2.10;;
37131;SDS011;23035;50.032;21.978;2023-07-20T12:43:34;3.00;;;2.50;;
37131;SDS011;23035;50.032;21.978;2023-07-20T12:48:45;6.38;;;2.38;;
37131;SDS011;23035;50.032;21.978;2023-07-20T12:53:51;5.18;;;2.38;;
37131;SDS011;23035;50.032;21.978;2023-07-20T12:58:55;3.10;;;2.10;;
37131;SDS011;23035;50.032;21.978;2023-07-20T13:04:00;3.58;;;2.20;;
37131;SDS011;23035;50.032;21.978;2023-07-20T13:09:07;5.80;;;2.20;;
37131;SDS011;23035;50.032;21.978;2023-07-20T13:14:10;4.03;;;2.53;;
37131;SDS011;23035;50.032;21.978;2023-07-20T13:19:19;3.70;;;2.10;;
37131;SDS011;23035;50.032;21.978;2023-07-20T13:24:23;3.47;;;2.20;;
37131;SDS011;23035;50.032;21.978;2023-07-20T13:29:27;4.65;;;2.67;;
37131;SDS011;23035;50.032;21.978;2023-07-20T13:34:32;3.78;;;2.30;;
37131;SDS011;23035;50.032;21.978;2023-07-20T13:39:41;2.90;;;2.30;;
37131;SDS011;23035;50.032;21.978;2023-07-20T13:44:46;5.13;;;2.30;;
37131;SDS011;23035;50.032;21.978;2023-07-20T13:49:51;3.75;;;2.22;;
37131;SDS011;23035;50.032;21.978;2023-07-20T13:55:06;6.00;;;2.50;;
37131;SDS011;23035;50.032;21.978;2023-07-20T14:00:11;5.00;;;2.30;;
37131;SDS011;23035;50.032;21.978;2023-07-20T14:05:20;3.50;;;2.50;;
37131;SDS011;23035;50.032;21.978;2023-07-20T14:10:27;4.55;;;2.60;;
37131;SDS011;23035;50.032;21.978;2023-07-20T14:15:31;4.05;;;2.70;;
37131;SDS011;23035;50.032;21.978;2023-07-20T14:20:36;4.00;;;2.33;;
37131;SDS011;23035;50.032;21.978;2023-07-20T14:25:41;2.60;;;2.40;;
37131;SDS011;23035;50.032;21.978;2023-07-20T14:30:45;6.07;;;2.67;;
37131;SDS011;23035;50.032;21.978;2023-07-20T14:35:51;3.42;;;2.17;;
37131;SDS011;23035;50.032;21.978;2023-07-20T14:40:55;4.35;;;2.42;;
37131;SDS011;23035;50.032;21.978;2023-07-20T14:45:59;2.90;;;2.30;;
37131;SDS011;23035;50.032;21.978;2023-07-20T14:51:05;6.03;;;2.70;;
37131;SDS011;23035;50.032;21.978;2023-07-20T14:56:09;4.55;;;2.70;;
37131;SDS011;23035;50.032;21.978;2023-07-20T15:01:14;3.40;;;3.03;;
37131;SDS011;23035;50.032;21.978;2023-07-20T15:06:19;4.70;;;2.65;;
37131;SDS011;23035;50.032;21.978;2023-07-20T15:11:23;4.95;;;2.25;;
37131;SDS011;23035;50.032;21.978;2023-07-20T15:16:27;3.47;;;2.30;;
37131;SDS011;23035;50.032;21.978;2023-07-20T15:21:33;4.32;;;2.30;;
37131;SDS011;23035;50.032;21.978;2023-07-20T15:26:37;2.58;;;2.13;;
37131;SDS011;23035;50.032;21.978;2023-07-20T15:31:43;3.78;;;2.95;;
37131;SDS011;23035;50.032;21.978;2023-07-20T15:36:51;6.70;;;3.25;;
37131;SDS011;23035;50.032;21.978;2023-07-20T15:41:55;5.70;;;2.75;;
37131;SDS011;23035;50.032;21.978;2023-07-20T15:46:59;4.23;;;2.43;;
37131;SDS011;23035;50.032;21.978;2023-07-20T15:52:05;2.85;;;2.45;;
37131;SDS011;23035;50.032;21.978;2023-07-20T15:57:09;3.72;;;2.47;;
37131;SDS011;23035;50.032;21.978;2023-07-20T16:02:13;4.90;;;2.72;;
37131;SDS011;23035;50.032;21.978;2023-07-20T16:07:19;4.63;;;3.78;;
37131;SDS011;23035;50.032;21.978;2023-07-20T16:12:22;4.70;;;4.22;;
37131;SDS011;23035;50.032;21.978;2023-07-20T16:17:28;5.82;;;3.40;;
37131;SDS011;23035;50.032;21.978;2023-07-20T16:22:33;8.05;;;2.97;;
37131;SDS011;23035;50.032;21.978;2023-07-20T16:27:37;4.22;;;3.15;;
37131;SDS011;23035;50.032;21.978;2023-07-20T16:32:41;6.63;;;3.13;;
37131;SDS011;23035;50.032;21.978;2023-07-20T16:37:50;7.53;;;2.67;;
37131;SDS011;23035;50.032;21.978;2023-07-20T16:42:57;5.05;;;3.50;;
37131;SDS011;23035;50.032;21.978;2023-07-20T16:48:06;3.45;;;2.40;;
37131;SDS011;23035;50.032;21.978;2023-07-20T16:53:13;5.88;;;2.60;;
37131;SDS011;23035;50.032;21.978;2023-07-20T16:58:17;6.70;;;2.67;;
37131;SDS011;23035;50.032;21.978;2023-07-20T17:03:21;4.32;;;2.92;;
37131;SDS011;23035;50.032;21.978;2023-07-20T17:08:27;7.40;;;2.67;;
37131;SDS011;23035;50.032;21.978;2023-07-20T17:13:31;9.75;;;2.28;;
37131;SDS011;23035;50.032;21.978;2023-07-20T17:18:35;3.55;;;1.92;;
37131;SDS011;23035;50.032;21.978;2023-07-20T17:23:41;2.83;;;1.73;;
37131;SDS011;23035;50.032;21.978;2023-07-20T17:28:47;3.78;;;2.20;;
37131;SDS011;23035;50.032;21.978;2023-07-20T17:33:51;2.58;;;1.35;;
37131;SDS011;23035;50.032;21.978;2023-07-20T17:38:57;1.60;;;1.50;;
37131;SDS011;23035;50.032;21.978;2023-07-20T17:49:06;4.13;;;2.08;;
37131;SDS011;23035;50.032;21.978;2023-07-20T17:54:12;3.00;;;1.80;;
37131;SDS011;23035;50.032;21.978;2023-07-20T17:59:17;3.60;;;2.63;;
37131;SDS011;23035;50.032;21.978;2023-07-20T18:04:23;4.60;;;3.58;;
37131;SDS011;23035;50.032;21.978;2023-07-20T18:09:28;3.42;;;2.90;;
37131;SDS011;23035;50.032;21.978;2023-07-20T18:14:32;10.30;;;2.60;;
37131;SDS011;23035;50.032;21.978;2023-07-20T18:19:36;4.13;;;2.10;;
37131;SDS011;23035;50.032;21.978;2023-07-20T18:24:41;5.80;;;2.78;;
37131;SDS011;23035;50.032;21.978;2023-07-20T18:29:45;1.60;;;1.50;;
37131;SDS011;23035;50.032;21.978;2023-07-20T18:34:49;2.38;;;1.70;;
37131;SDS011;23035;50.032;21.978;2023-07-20T18:39:54;10.27;;;5.95;;
37131;SDS011;23035;50.032;21.978;2023-07-20T18:44:58;1.50;;;1.33;;
37131;SDS011;23035;50.032;21.978;2023-07-20T18:50:02;8.07;;;6.05;;
37131;SDS011;23035;50.032;21.978;2023-07-20T18:55:08;5.57;;;1.80;;
37131;SDS011;23035;50.032;21.978;2023-07-20T19:00:13;3.97;;;2.05;;
37131;SDS011;23035;50.032;21.978;2023-07-20T19:05:19;3.53;;;2.55;;
37131;SDS011;23035;50.032;21.978;2023-07-20T19:10:25;6.07;;;1.83;;
37131;SDS011;23035;50.032;21.978;2023-07-20T19:15:51;4.32;;;1.73;;
37131;SDS011;23035;50.032;21.978;2023-07-20T19:20:58;2.13;;;1.83;;
37131;SDS011;23035;50.032;21.978;2023-07-20T19:26:06;3.13;;;1.85;;
37131;SDS011;23035;50.032;21.978;2023-07-20T19:31:10;2.97;;;2.03;;
37131;SDS011;23035;50.032;21.978;2023-07-20T19:36:14;7.47;;;2.58;;
37131;SDS011;23035;50.032;21.978;2023-07-20T19:41:19;3.15;;;2.20;;
37131;SDS011;23035;50.032;21.978;2023-07-20T19:46:23;6.78;;;2.40;;
37131;SDS011;23035;50.032;21.978;2023-07-20T19:51:28;7.47;;;2.60;;
37131;SDS011;23035;50.032;21.978;2023-07-20T19:56:33;4.20;;;2.72;;
37131;SDS011;23035;50.032;21.978;2023-07-20T20:01:43;4.63;;;2.67;;
37131;SDS011;23035;50.032;21.978;2023-07-20T20:06:50;6.88;;;2.78;;
37131;SDS011;23035;50.032;21.978;2023-07-20T20:11:55;6.65;;;2.50;;
37131;SDS011;23035;50.032;21.978;2023-07-20T20:16:59;9.43;;;2.78;;
37131;SDS011;23035;50.032;21.978;2023-07-20T20:22:06;6.75;;;2.90;;
37131;SDS011;23035;50.032;21.978;2023-07-20T20:27:14;3.10;;;2.45;;
37131;SDS011;23035;50.032;21.978;2023-07-20T20:32:18;4.40;;;2.70;;
37131;SDS011;23035;50.032;21.978;2023-07-20T20:37:22;4.38;;;2.55;;
37131;SDS011;23035;50.032;21.978;2023-07-20T20:42:28;4.30;;;2.70;;
37131;SDS011;23035;50.032;21.978;2023-07-20T20:52:39;6.43;;;2.38;;
37131;SDS011;23035;50.032;21.978;2023-07-20T20:57:46;3.63;;;2.63;;
37131;SDS011;23035;50.032;21.978;2023-07-20T21:02:50;6.07;;;2.47;;
37131;SDS011;23035;50.032;21.978;2023-07-20T21:07:55;6.10;;;2.00;;
37131;SDS011;23035;50.032;21.978;2023-07-20T21:18:06;5.30;;;2.40;;
37131;SDS011;23035;50.032;21.978;2023-07-20T21:23:11;4.70;;;2.40;;
37131;SDS011;23035;50.032;21.978;2023-07-20T21:28:16;2.90;;;2.20;;
37131;SDS011;23035;50.032;21.978;2023-07-20T21:33:24;6.82;;;2.60;;
37131;SDS011;23035;50.032;21.978;2023-07-20T21:38:27;6.07;;;2.90;;
37131;SDS011;23035;50.032;21.978;2023-07-20T21:43:34;6.45;;;3.30;;
37131;SDS011;23035;50.032;21.978;2023-07-20T21:48:38;8.75;;;3.58;;
37131;SDS011;23035;50.032;21.978;2023-07-20T21:53:42;7.17;;;3.70;;
37131;SDS011;23035;50.032;21.978;2023-07-20T21:58:47;5.10;;;3.03;;
37131;SDS011;23035;50.032;21.978;2023-07-20T22:03:51;6.95;;;3.30;;
37131;SDS011;23035;50.032;21.978;2023-07-20T22:08:56;9.30;;;3.35;;
37131;SDS011;23035;50.032;21.978;2023-07-20T22:14:01;9.55;;;3.60;;
37131;SDS011;23035;50.032;21.978;2023-07-20T22:19:05;6.72;;;3.42;;
37131;SDS011;23035;50.032;21.978;2023-07-20T22:24:09;9.98;;;3.00;;
37131;SDS011;23035;50.032;21.978;2023-07-20T22:29:15;5.60;;;3.08;;
37131;SDS011;23035;50.032;21.978;2023-07-20T22:34:18;6.60;;;3.08;;
37131;SDS011;23035;50.032;21.978;2023-07-20T22:39:22;5.53;;;3.17;;
37131;SDS011;23035;50.032;21.978;2023-07-20T22:44:27;7.88;;;3.38;;
37131;SDS011;23035;50.032;21.978;2023-07-20T22:49:31;5.30;;;3.38;;
37131;SDS011;23035;50.032;21.978;2023-07-20T22:54:36;7.83;;;3.10;;
37131;SDS011;23035;50.032;21.978;2023-07-20T22:59:41;5.30;;;2.75;;
37131;SDS011;23035;50.032;21.978;2023-07-20T23:04:45;9.80;;;3.40;;
37131;SDS011;23035;50.032;21.978;2023-07-20T23:09:49;8.23;;;3.20;;
37131;SDS011;23035;50.032;21.978;2023-07-20T23:14:55;5.65;;;3.22;;
37131;SDS011;23035;50.032;21.978;2023-07-20T23:19:59;6.15;;;3.05;;
37131;SDS011;23035;50.032;21.978;2023-07-20T23:25:03;5.30;;;3.55;;
37131;SDS011;23035;50.032;21.978;2023-07-20T23:30:11;6.50;;;3.70;;
37131;SDS011;23035;50.032;21.978;2023-07-20T23:35:16;6.40;;;3.10;;
37131;SDS011;23035;50.032;21.978;2023-07-20T23:40:22;7.53;;;2.97;;
37131;SDS011;23035;50.032;21.978;2023-07-20T23:45:28;9.43;;;3.17;;
37131;SDS011;23035;50.032;21.978;2023-07-20T23:50:32;11.43;;;3.30;;
37131;SDS011;23035;50.032;21.978;2023-07-20T23:55:35;7.72;;;3.10;;
